sensor_id;sensor_type;location;lat;lon;timestamp;pressure;altitude;pressure_sealevel;temperature;humidity
73501;BME280;61721;42.206;25.320;2023-03-23T00:01:52;99695.72;;;10.52;83.13
73501;BME280;61721;42.206;25.320;2023-03-23T00:04:21;99700.81;;;10.45;82.57
73501;BME280;61721;42.206;25.320;2023-03-23T00:06:52;99696.28;;;10.75;80.92
73501;BME280;61721;42.206;25.320;2023-03-23T00:09:20;99698.13;;;10.55;81.56
73501;BME280;61721;42.206;25.320;2023-03-23T00:11:50;99690.66;;;10.58;81.91
73501;BME280;61721;42.206;25.320;2023-03-23T00:14:23;99693.22;;;10.41;82.85
73501;BME280;61721;42.206;25.320;2023-03-23T00:16:50;99690.78;;;10.76;81.40
73501;BME280;61721;42.206;25.320;2023-03-23T00:19:18;99694.53;;;9.87;84.53
73501;BME280;61721;42.206;25.320;2023-03-23T00:21:48;99687.25;;;9.99;85.90
73501;BME280;61721;42.206;25.320;2023-03-23T00:24:19;99694.72;;;10.14;84.33
73501;BME280;61721;42.206;25.320;2023-03-23T00:26:47;99687.69;;;10.71;82.24
73501;BME280;61721;42.206;25.320;2023-03-23T00:29:18;99688.66;;;10.80;81.77
73501;BME280;61721;42.206;25.320;2023-03-23T00:31:47;99679.63;;;10.90;81.65
73501;BME280;61721;42.206;25.320;2023-03-23T00:34:16;99697.13;;;10.37;82.75
73501;BME280;61721;42.206;25.320;2023-03-23T00:36:45;99683.59;;;10.67;82.02
73501;BME280;61721;42.206;25.320;2023-03-23T00:39:14;99686.44;;;10.56;82.61
73501;BME280;61721;42.206;25.320;2023-03-23T00:41:43;99675.81;;;10.83;82.12
73501;BME280;61721;42.206;25.320;2023-03-23T00:44:11;99689.91;;;10.85;80.78
73501;BME280;61721;42.206;25.320;2023-03-23T00:46:42;99687.84;;;10.60;81.29
73501;BME280;61721;42.206;25.320;2023-03-23T00:49:12;99680.25;;;10.26;83.01
73501;BME280;61721;42.206;25.320;2023-03-23T00:51:40;99673.50;;;10.61;81.96
73501;BME280;61721;42.206;25.320;2023-03-23T00:54:08;99678.81;;;10.80;81.92
73501;BME280;61721;42.206;25.320;2023-03-23T00:56:37;99676.38;;;10.96;80.76
73501;BME280;61721;42.206;25.320;2023-03-23T00:59:05;99673.16;;;10.83;81.50
73501;BME280;61721;42.206;25.320;2023-03-23T01:01:33;99676.31;;;10.31;82.82
73501;BME280;61721;42.206;25.320;2023-03-23T01:04:02;99679.69;;;10.33;83.90
73501;BME280;61721;42.206;25.320;2023-03-23T01:06:30;99677.41;;;10.57;81.48
73501;BME280;61721;42.206;25.320;2023-03-23T01:08:58;99679.25;;;10.66;81.36
73501;BME280;61721;42.206;25.320;2023-03-23T01:11:26;99672.56;;;10.89;80.33
73501;BME280;61721;42.206;25.320;2023-03-23T01:13:55;99667.47;;;11.05;79.30
73501;BME280;61721;42.206;25.320;2023-03-23T01:16:22;99667.25;;;10.70;80.68
73501;BME280;61721;42.206;25.320;2023-03-23T01:18:50;99665.84;;;10.76;80.86
73501;BME280;61721;42.206;25.320;2023-03-23T01:21:19;99665.03;;;10.65;81.66
73501;BME280;61721;42.206;25.320;2023-03-23T01:23:47;99667.53;;;10.67;81.81
73501;BME280;61721;42.206;25.320;2023-03-23T01:26:17;99655.69;;;10.79;80.28
73501;BME280;61721;42.206;25.320;2023-03-23T01:28:47;99658.47;;;10.97;80.19
73501;BME280;61721;42.206;25.320;2023-03-23T01:31:17;99651.28;;;10.88;81.05
73501;BME280;61721;42.206;25.320;2023-03-23T01:33:45;99644.69;;;10.82;80.24
73501;BME280;61721;42.206;25.320;2023-03-23T01:36:14;99646.94;;;10.77;81.08
73501;BME280;61721;42.206;25.320;2023-03-23T01:38:49;99649.63;;;10.77;80.66
73501;BME280;61721;42.206;25.320;2023-03-23T01:41:18;99643.84;;;10.72;80.22
73501;BME280;61721;42.206;25.320;2023-03-23T01:43:57;99643.84;;;10.91;79.66
73501;BME280;61721;42.206;25.320;2023-03-23T01:46:27;99649.47;;;10.88;79.98
73501;BME280;61721;42.206;25.320;2023-03-23T01:48:57;99654.88;;;10.69;79.95
73501;BME280;61721;42.206;25.320;2023-03-23T01:51:26;99658.69;;;10.57;82.15
73501;BME280;61721;42.206;25.320;2023-03-23T01:53:56;99655.44;;;10.63;81.13
73501;BME280;61721;42.206;25.320;2023-03-23T01:56:26;99652.22;;;10.59;80.83
73501;BME280;61721;42.206;25.320;2023-03-23T01:58:58;99652.94;;;10.98;80.59
73501;BME280;61721;42.206;25.320;2023-03-23T02:01:27;99657.69;;;10.58;81.15
73501;BME280;61721;42.206;25.320;2023-03-23T02:03:56;99664.19;;;10.55;81.85
73501;BME280;61721;42.206;25.320;2023-03-23T02:06:25;99670.38;;;10.65;81.98
73501;BME280;61721;42.206;25.320;2023-03-23T02:08:52;99665.59;;;10.59;81.79
73501;BME280;61721;42.206;25.320;2023-03-23T02:11:20;99668.13;;;10.42;81.72
73501;BME280;61721;42.206;25.320;2023-03-23T02:13:48;99672.31;;;10.73;80.41
73501;BME280;61721;42.206;25.320;2023-03-23T02:16:28;99678.25;;;10.57;80.79
73501;BME280;61721;42.206;25.320;2023-03-23T02:19:12;99679.38;;;10.74;79.66
73501;BME280;61721;42.206;25.320;2023-03-23T02:22:14;99679.00;;;10.50;80.57
73501;BME280;61721;42.206;25.320;2023-03-23T02:24:56;99681.09;;;10.46;81.51
73501;BME280;61721;42.206;25.320;2023-03-23T02:30:43;99680.50;;;10.81;78.84
73501;BME280;61721;42.206;25.320;2023-03-23T02:33:28;99680.13;;;11.03;77.54
73501;BME280;61721;42.206;25.320;2023-03-23T02:35:58;99682.75;;;10.76;79.22
73501;BME280;61721;42.206;25.320;2023-03-23T02:38:32;99688.13;;;10.76;79.36
73501;BME280;61721;42.206;25.320;2023-03-23T02:41:02;99684.69;;;10.93;79.17
73501;BME280;61721;42.206;25.320;2023-03-23T02:43:33;99691.38;;;11.17;78.53
73501;BME280;61721;42.206;25.320;2023-03-23T02:46:05;99688.34;;;10.92;78.27
73501;BME280;61721;42.206;25.320;2023-03-23T02:48:38;99683.28;;;10.89;79.04
73501;BME280;61721;42.206;25.320;2023-03-23T02:51:08;99695.44;;;10.74;79.34
73501;BME280;61721;42.206;25.320;2023-03-23T02:53:40;99686.97;;;10.69;79.90
73501;BME280;61721;42.206;25.320;2023-03-23T02:56:10;99693.88;;;11.28;77.46
73501;BME280;61721;42.206;25.320;2023-03-23T02:58:39;99684.06;;;11.09;78.19
73501;BME280;61721;42.206;25.320;2023-03-23T03:04:16;99698.13;;;11.21;78.15
73501;BME280;61721;42.206;25.320;2023-03-23T03:06:54;99694.97;;;10.88;79.49
73501;BME280;61721;42.206;25.320;2023-03-23T03:09:31;99699.22;;;10.81;79.21
73501;BME280;61721;42.206;25.320;2023-03-23T03:12:05;99690.56;;;11.06;78.84
73501;BME280;61721;42.206;25.320;2023-03-23T03:14:37;99693.09;;;11.08;78.69
73501;BME280;61721;42.206;25.320;2023-03-23T03:17:10;99694.09;;;11.07;78.66
73501;BME280;61721;42.206;25.320;2023-03-23T03:19:46;99689.19;;;10.93;79.38
73501;BME280;61721;42.206;25.320;2023-03-23T03:22:17;99702.13;;;10.97;79.22
73501;BME280;61721;42.206;25.320;2023-03-23T03:24:48;99699.13;;;11.20;78.00
73501;BME280;61721;42.206;25.320;2023-03-23T03:27:19;99698.66;;;11.61;77.19
73501;BME280;61721;42.206;25.320;2023-03-23T03:29:53;99701.72;;;11.39;77.33
73501;BME280;61721;42.206;25.320;2023-03-23T03:32:24;99697.28;;;11.20;78.83
73501;BME280;61721;42.206;25.320;2023-03-23T03:34:59;99704.78;;;11.17;77.88
73501;BME280;61721;42.206;25.320;2023-03-23T03:37:26;99705.44;;;11.28;78.25
73501;BME280;61721;42.206;25.320;2023-03-23T03:39:54;99714.34;;;11.56;76.81
73501;BME280;61721;42.206;25.320;2023-03-23T03:42:21;99705.59;;;11.27;77.72
73501;BME280;61721;42.206;25.320;2023-03-23T03:44:48;99709.44;;;11.14;78.47
73501;BME280;61721;42.206;25.320;2023-03-23T03:47:15;99719.94;;;10.69;79.56
73501;BME280;61721;42.206;25.320;2023-03-23T03:49:43;99716.47;;;11.15;78.83
73501;BME280;61721;42.206;25.320;2023-03-23T03:52:11;99714.78;;;11.14;78.57
73501;BME280;61721;42.206;25.320;2023-03-23T03:54:38;99725.25;;;10.98;79.70
73501;BME280;61721;42.206;25.320;2023-03-23T03:57:06;99722.50;;;10.61;81.08
73501;BME280;61721;42.206;25.320;2023-03-23T03:59:33;99718.78;;;11.01;79.32
73501;BME280;61721;42.206;25.320;2023-03-23T04:02:00;99723.31;;;10.52;80.22
73501;BME280;61721;42.206;25.320;2023-03-23T04:04:28;99722.34;;;10.63;82.23
73501;BME280;61721;42.206;25.320;2023-03-23T04:06:55;99719.38;;;10.85;80.46
73501;BME280;61721;42.206;25.320;2023-03-23T04:09:24;99721.47;;;10.72;80.86
73501;BME280;61721;42.206;25.320;2023-03-23T04:11:52;99723.81;;;11.13;79.53
73501;BME280;61721;42.206;25.320;2023-03-23T04:14:19;99720.25;;;10.66;80.61
73501;BME280;61721;42.206;25.320;2023-03-23T04:16:47;99726.44;;;10.48;82.41
73501;BME280;61721;42.206;25.320;2023-03-23T04:19:22;99718.13;;;10.70;81.15
73501;BME280;61721;42.206;25.320;2023-03-23T04:21:49;99716.53;;;10.77;82.03
73501;BME280;61721;42.206;25.320;2023-03-23T04:24:17;99723.47;;;11.36;80.63
73501;BME280;61721;42.206;25.320;2023-03-23T04:26:48;99721.47;;;11.38;79.31
73501;BME280;61721;42.206;25.320;2023-03-23T04:29:19;99725.97;;;11.47;78.56
73501;BME280;61721;42.206;25.320;2023-03-23T04:31:47;99721.75;;;10.88;81.36
73501;BME280;61721;42.206;25.320;2023-03-23T04:34:16;99719.69;;;11.19;80.18
73501;BME280;61721;42.206;25.320;2023-03-23T04:36:44;99727.00;;;10.80;82.20
73501;BME280;61721;42.206;25.320;2023-03-23T04:39:12;99726.31;;;11.25;80.33
73501;BME280;61721;42.206;25.320;2023-03-23T04:41:41;99728.97;;;11.34;79.52
73501;BME280;61721;42.206;25.320;2023-03-23T04:44:11;99735.13;;;10.88;81.17
73501;BME280;61721;42.206;25.320;2023-03-23T04:46:44;99748.66;;;10.77;81.37
73501;BME280;61721;42.206;25.320;2023-03-23T04:49:15;99743.31;;;10.96;81.33
73501;BME280;61721;42.206;25.320;2023-03-23T04:51:47;99755.72;;;10.59;81.89
73501;BME280;61721;42.206;25.320;2023-03-23T04:54:14;99761.06;;;11.07;81.83
73501;BME280;61721;42.206;25.320;2023-03-23T04:56:41;99743.25;;;11.15;80.51
73501;BME280;61721;42.206;25.320;2023-03-23T04:59:08;99755.91;;;11.23;79.04
73501;BME280;61721;42.206;25.320;2023-03-23T05:01:37;99757.13;;;10.82;81.57
73501;BME280;61721;42.206;25.320;2023-03-23T05:04:06;99746.34;;;11.21;80.28
73501;BME280;61721;42.206;25.320;2023-03-23T05:06:33;99745.00;;;11.44;78.44
73501;BME280;61721;42.206;25.320;2023-03-23T05:09:00;99748.31;;;11.19;79.85
73501;BME280;61721;42.206;25.320;2023-03-23T05:11:28;99759.88;;;11.19;79.04
73501;BME280;61721;42.206;25.320;2023-03-23T05:13:55;99759.47;;;11.61;77.66
73501;BME280;61721;42.206;25.320;2023-03-23T05:16:23;99756.25;;;11.10;79.81
73501;BME280;61721;42.206;25.320;2023-03-23T05:18:52;99758.47;;;11.25;78.52
73501;BME280;61721;42.206;25.320;2023-03-23T05:21:22;99760.22;;;11.06;80.01
73501;BME280;61721;42.206;25.320;2023-03-23T05:23:50;99756.19;;;11.30;79.12
73501;BME280;61721;42.206;25.320;2023-03-23T05:26:20;99760.16;;;11.26;79.45
73501;BME280;61721;42.206;25.320;2023-03-23T05:28:47;99767.72;;;11.40;79.19
73501;BME280;61721;42.206;25.320;2023-03-23T05:31:19;99772.78;;;11.43;79.45
73501;BME280;61721;42.206;25.320;2023-03-23T05:33:46;99777.22;;;11.71;78.06
73501;BME280;61721;42.206;25.320;2023-03-23T05:36:14;99778.69;;;11.56;78.78
73501;BME280;61721;42.206;25.320;2023-03-23T05:38:42;99779.25;;;11.50;78.58
73501;BME280;61721;42.206;25.320;2023-03-23T05:41:11;99778.63;;;11.75;77.79
73501;BME280;61721;42.206;25.320;2023-03-23T05:43:38;99777.25;;;11.62;78.05
73501;BME280;61721;42.206;25.320;2023-03-23T05:46:05;99788.22;;;11.31;79.72
73501;BME280;61721;42.206;25.320;2023-03-23T05:48:33;99778.19;;;11.24;80.13
73501;BME280;61721;42.206;25.320;2023-03-23T05:51:00;99787.78;;;11.36;79.57
73501;BME280;61721;42.206;25.320;2023-03-23T05:53:29;99777.97;;;10.88;81.43
73501;BME280;61721;42.206;25.320;2023-03-23T05:55:58;99774.72;;;11.60;79.95
73501;BME280;61721;42.206;25.320;2023-03-23T05:58:26;99789.66;;;11.06;80.60
73501;BME280;61721;42.206;25.320;2023-03-23T06:00:54;99792.34;;;11.53;78.69
73501;BME280;61721;42.206;25.320;2023-03-23T06:03:21;99789.84;;;11.51;79.38
73501;BME280;61721;42.206;25.320;2023-03-23T06:05:49;99791.94;;;11.48;78.93
73501;BME280;61721;42.206;25.320;2023-03-23T06:08:16;99795.53;;;11.85;77.79
73501;BME280;61721;42.206;25.320;2023-03-23T06:10:45;99795.91;;;11.44;78.05
73501;BME280;61721;42.206;25.320;2023-03-23T06:13:12;99801.28;;;11.44;78.97
73501;BME280;61721;42.206;25.320;2023-03-23T06:15:40;99793.28;;;11.71;79.19
73501;BME280;61721;42.206;25.320;2023-03-23T06:18:07;99795.25;;;11.69;78.71
73501;BME280;61721;42.206;25.320;2023-03-23T06:20:35;99802.56;;;11.86;78.60
73501;BME280;61721;42.206;25.320;2023-03-23T06:23:02;99807.25;;;12.12;76.89
73501;BME280;61721;42.206;25.320;2023-03-23T06:25:30;99810.81;;;11.75;78.33
73501;BME280;61721;42.206;25.320;2023-03-23T06:27:59;99809.72;;;11.49;78.69
73501;BME280;61721;42.206;25.320;2023-03-23T06:30:26;99810.16;;;11.44;79.60
73501;BME280;61721;42.206;25.320;2023-03-23T06:32:54;99814.06;;;12.06;78.10
73501;BME280;61721;42.206;25.320;2023-03-23T06:35:22;99817.72;;;12.32;77.29
73501;BME280;61721;42.206;25.320;2023-03-23T06:37:50;99818.97;;;11.74;78.26
73501;BME280;61721;42.206;25.320;2023-03-23T06:40:19;99824.06;;;11.67;79.06
73501;BME280;61721;42.206;25.320;2023-03-23T06:42:48;99820.84;;;12.00;77.77
73501;BME280;61721;42.206;25.320;2023-03-23T06:45:17;99824.78;;;11.59;79.69
73501;BME280;61721;42.206;25.320;2023-03-23T06:47:45;99826.31;;;12.36;77.39
73501;BME280;61721;42.206;25.320;2023-03-23T06:50:14;99822.34;;;11.85;78.05
73501;BME280;61721;42.206;25.320;2023-03-23T06:52:45;99821.78;;;11.82;77.94
73501;BME280;61721;42.206;25.320;2023-03-23T06:55:13;99824.03;;;11.86;78.66
73501;BME280;61721;42.206;25.320;2023-03-23T06:57:40;99820.34;;;12.15;77.65
73501;BME280;61721;42.206;25.320;2023-03-23T07:00:08;99828.22;;;12.26;77.38
73501;BME280;61721;42.206;25.320;2023-03-23T07:02:40;99829.63;;;12.03;77.17
73501;BME280;61721;42.206;25.320;2023-03-23T07:05:08;99827.72;;;12.13;77.36
73501;BME280;61721;42.206;25.320;2023-03-23T07:07:35;99838.75;;;12.10;77.50
73501;BME280;61721;42.206;25.320;2023-03-23T07:10:04;99838.66;;;12.02;77.29
73501;BME280;61721;42.206;25.320;2023-03-23T07:12:31;99828.13;;;11.81;78.61
73501;BME280;61721;42.206;25.320;2023-03-23T07:14:59;99841.34;;;12.74;75.58
73501;BME280;61721;42.206;25.320;2023-03-23T07:17:26;99843.34;;;12.90;74.59
73501;BME280;61721;42.206;25.320;2023-03-23T07:19:56;99849.06;;;12.59;74.66
73501;BME280;61721;42.206;25.320;2023-03-23T07:22:23;99845.03;;;12.28;75.35
73501;BME280;61721;42.206;25.320;2023-03-23T07:24:50;99841.63;;;13.06;73.99
73501;BME280;61721;42.206;25.320;2023-03-23T07:27:17;99845.22;;;12.62;74.08
73501;BME280;61721;42.206;25.320;2023-03-23T07:29:45;99845.84;;;12.91;73.89
73501;BME280;61721;42.206;25.320;2023-03-23T07:32:12;99851.13;;;13.01;74.40
73501;BME280;61721;42.206;25.320;2023-03-23T07:34:39;99852.03;;;13.19;72.28
73501;BME280;61721;42.206;25.320;2023-03-23T07:37:08;99854.56;;;13.20;72.59
73501;BME280;61721;42.206;25.320;2023-03-23T07:39:36;99852.63;;;13.13;72.51
73501;BME280;61721;42.206;25.320;2023-03-23T07:42:03;99854.34;;;13.14;73.50
73501;BME280;61721;42.206;25.320;2023-03-23T07:44:32;99851.13;;;13.36;72.57
73501;BME280;61721;42.206;25.320;2023-03-23T07:47:00;99857.97;;;13.48;72.12
73501;BME280;61721;42.206;25.320;2023-03-23T07:49:27;99855.88;;;13.86;70.12
73501;BME280;61721;42.206;25.320;2023-03-23T07:51:56;99855.97;;;13.50;71.93
73501;BME280;61721;42.206;25.320;2023-03-23T07:54:25;99848.03;;;14.00;71.28
73501;BME280;61721;42.206;25.320;2023-03-23T07:56:52;99847.72;;;13.52;72.33
73501;BME280;61721;42.206;25.320;2023-03-23T07:59:19;99852.59;;;13.48;72.04
73501;BME280;61721;42.206;25.320;2023-03-23T08:01:46;99859.81;;;13.74;70.75
73501;BME280;61721;42.206;25.320;2023-03-23T08:04:14;99859.84;;;13.30;72.16
73501;BME280;61721;42.206;25.320;2023-03-23T08:06:41;99858.19;;;13.55;71.05
73501;BME280;61721;42.206;25.320;2023-03-23T08:09:08;99870.34;;;13.93;69.49
73501;BME280;61721;42.206;25.320;2023-03-23T08:11:37;99866.94;;;14.42;68.80
73501;BME280;61721;42.206;25.320;2023-03-23T08:14:05;99870.41;;;14.01;70.28
73501;BME280;61721;42.206;25.320;2023-03-23T08:16:32;99871.91;;;13.95;70.28
73501;BME280;61721;42.206;25.320;2023-03-23T08:18:59;99868.09;;;14.06;69.93
73501;BME280;61721;42.206;25.320;2023-03-23T08:21:28;99869.13;;;13.61;70.02
73501;BME280;61721;42.206;25.320;2023-03-23T08:23:55;99868.97;;;13.81;69.05
73501;BME280;61721;42.206;25.320;2023-03-23T08:26:22;99868.09;;;14.06;69.60
73501;BME280;61721;42.206;25.320;2023-03-23T08:28:51;99872.69;;;14.47;69.08
73501;BME280;61721;42.206;25.320;2023-03-23T08:31:18;99870.09;;;14.04;68.85
73501;BME280;61721;42.206;25.320;2023-03-23T08:33:46;99870.44;;;14.09;68.88
73501;BME280;61721;42.206;25.320;2023-03-23T08:36:13;99872.00;;;13.86;68.87
73501;BME280;61721;42.206;25.320;2023-03-23T08:38:40;99870.72;;;13.98;68.94
73501;BME280;61721;42.206;25.320;2023-03-23T08:41:09;99865.44;;;14.14;68.03
73501;BME280;61721;42.206;25.320;2023-03-23T08:43:36;99864.06;;;14.10;69.71
73501;BME280;61721;42.206;25.320;2023-03-23T08:46:07;99867.66;;;13.93;69.28
73501;BME280;61721;42.206;25.320;2023-03-23T08:48:36;99873.91;;;13.67;72.21
73501;BME280;61721;42.206;25.320;2023-03-23T08:51:06;99873.28;;;13.74;69.59
73501;BME280;61721;42.206;25.320;2023-03-23T08:53:34;99863.72;;;14.05;69.46
73501;BME280;61721;42.206;25.320;2023-03-23T08:56:04;99869.63;;;13.83;71.16
73501;BME280;61721;42.206;25.320;2023-03-23T08:58:31;99864.72;;;13.78;71.15
73501;BME280;61721;42.206;25.320;2023-03-23T09:01:00;99872.56;;;13.97;71.16
73501;BME280;61721;42.206;25.320;2023-03-23T09:03:29;99869.03;;;13.97;70.93
73501;BME280;61721;42.206;25.320;2023-03-23T09:05:58;99868.88;;;13.98;69.98
73501;BME280;61721;42.206;25.320;2023-03-23T09:08:27;99869.56;;;14.00;69.67
73501;BME280;61721;42.206;25.320;2023-03-23T09:10:55;99872.34;;;14.50;69.17
73501;BME280;61721;42.206;25.320;2023-03-23T09:13:22;99874.75;;;13.94;69.79
73501;BME280;61721;42.206;25.320;2023-03-23T09:15:49;99866.97;;;14.17;70.83
73501;BME280;61721;42.206;25.320;2023-03-23T09:18:18;99870.31;;;13.59;71.11
73501;BME280;61721;42.206;25.320;2023-03-23T09:20:49;99877.41;;;13.42;72.42
73501;BME280;61721;42.206;25.320;2023-03-23T09:23:16;99874.84;;;13.84;71.44
73501;BME280;61721;42.206;25.320;2023-03-23T09:25:44;99871.56;;;13.73;71.82
73501;BME280;61721;42.206;25.320;2023-03-23T09:28:12;99869.69;;;14.25;69.50
73501;BME280;61721;42.206;25.320;2023-03-23T09:30:40;99874.16;;;13.56;71.03
73501;BME280;61721;42.206;25.320;2023-03-23T09:33:08;99870.94;;;13.79;70.19
73501;BME280;61721;42.206;25.320;2023-03-23T09:35:36;99875.59;;;13.94;69.32
73501;BME280;61721;42.206;25.320;2023-03-23T09:38:05;99869.03;;;13.97;71.17
73501;BME280;61721;42.206;25.320;2023-03-23T09:40:38;99868.63;;;13.84;71.15
73501;BME280;61721;42.206;25.320;2023-03-23T09:43:37;99876.97;;;13.73;70.27
73501;BME280;61721;42.206;25.320;2023-03-23T09:46:17;99860.19;;;13.79;70.45
73501;BME280;61721;42.206;25.320;2023-03-23T09:48:50;99864.19;;;13.75;68.68
73501;BME280;61721;42.206;25.320;2023-03-23T09:51:28;99862.19;;;13.77;69.68
73501;BME280;61721;42.206;25.320;2023-03-23T09:54:03;99866.50;;;14.21;68.14
73501;BME280;61721;42.206;25.320;2023-03-23T09:56:34;99871.22;;;14.27;68.30
73501;BME280;61721;42.206;25.320;2023-03-23T09:59:07;99873.38;;;13.64;70.43
73501;BME280;61721;42.206;25.320;2023-03-23T10:01:39;99868.53;;;13.67;69.80
73501;BME280;61721;42.206;25.320;2023-03-23T10:04:13;99862.75;;;13.62;70.62
73501;BME280;61721;42.206;25.320;2023-03-23T10:06:42;99868.78;;;13.56;70.06
73501;BME280;61721;42.206;25.320;2023-03-23T10:09:16;99875.34;;;13.36;70.56
73501;BME280;61721;42.206;25.320;2023-03-23T10:11:52;99869.91;;;13.46;70.83
73501;BME280;61721;42.206;25.320;2023-03-23T10:14:28;99869.13;;;13.61;69.46
73501;BME280;61721;42.206;25.320;2023-03-23T10:17:13;99868.84;;;13.90;67.62
73501;BME280;61721;42.206;25.320;2023-03-23T10:19:46;99870.69;;;13.64;68.83
73501;BME280;61721;42.206;25.320;2023-03-23T10:22:19;99862.19;;;13.77;67.12
73501;BME280;61721;42.206;25.320;2023-03-23T10:24:54;99864.72;;;13.78;67.86
73501;BME280;61721;42.206;25.320;2023-03-23T10:27:27;99865.59;;;13.87;67.54
73501;BME280;61721;42.206;25.320;2023-03-23T10:30:03;99865.31;;;13.90;66.39
73501;BME280;61721;42.206;25.320;2023-03-23T10:32:41;99862.19;;;13.77;66.71
73501;BME280;61721;42.206;25.320;2023-03-23T10:35:13;99874.75;;;13.94;66.36
73501;BME280;61721;42.206;25.320;2023-03-23T10:37:46;99859.97;;;13.98;65.42
73501;BME280;61721;42.206;25.320;2023-03-23T10:40:18;99868.38;;;13.95;66.80
73501;BME280;61721;42.206;25.320;2023-03-23T10:42:46;99850.19;;;13.97;65.96
73501;BME280;61721;42.206;25.320;2023-03-23T10:45:17;99852.81;;;13.81;65.84
73501;BME280;61721;42.206;25.320;2023-03-23T10:47:51;99852.25;;;14.03;64.95
73501;BME280;61721;42.206;25.320;2023-03-23T10:50:25;99855.50;;;14.48;65.51
73501;BME280;61721;42.206;25.320;2023-03-23T10:52:55;99856.56;;;14.22;63.89
73501;BME280;61721;42.206;25.320;2023-03-23T10:55:36;99855.06;;;14.27;65.29
73501;BME280;61721;42.206;25.320;2023-03-23T10:58:05;99860.38;;;14.45;65.22
73501;BME280;61721;42.206;25.320;2023-03-23T11:00:33;99855.47;;;14.40;64.26
73501;BME280;61721;42.206;25.320;2023-03-23T11:03:25;99848.75;;;14.36;63.41
73501;BME280;61721;42.206;25.320;2023-03-23T11:05:56;99856.34;;;13.55;67.25
73501;BME280;61721;42.206;25.320;2023-03-23T11:08:27;99848.94;;;13.57;65.12
73501;BME280;61721;42.206;25.320;2023-03-23T11:10:59;99844.78;;;13.89;65.24
73501;BME280;61721;42.206;25.320;2023-03-23T11:13:34;99842.16;;;13.71;66.41
73501;BME280;61721;42.206;25.320;2023-03-23T11:16:07;99842.13;;;13.97;65.12
73501;BME280;61721;42.206;25.320;2023-03-23T11:18:36;99839.44;;;13.97;63.97
73501;BME280;61721;42.206;25.320;2023-03-23T11:21:05;99836.72;;;13.37;66.27
73501;BME280;61721;42.206;25.320;2023-03-23T11:23:36;99829.91;;;14.44;64.49
73501;BME280;61721;42.206;25.320;2023-03-23T11:26:11;99827.78;;;13.88;63.46
73501;BME280;61721;42.206;25.320;2023-03-23T11:28:44;99833.31;;;13.87;64.02
73501;BME280;61721;42.206;25.320;2023-03-23T11:31:13;99833.31;;;14.54;62.88
73501;BME280;61721;42.206;25.320;2023-03-23T11:33:53;99829.97;;;14.69;61.86
73501;BME280;61721;42.206;25.320;2023-03-23T11:36:30;99830.34;;;13.98;63.05
73501;BME280;61721;42.206;25.320;2023-03-23T11:38:57;99824.22;;;13.80;63.09
73501;BME280;61721;42.206;25.320;2023-03-23T11:41:32;99823.22;;;14.57;61.64
73501;BME280;61721;42.206;25.320;2023-03-23T11:44:08;99828.22;;;14.01;63.05
73501;BME280;61721;42.206;25.320;2023-03-23T11:46:41;99821.97;;;14.43;61.83
73501;BME280;61721;42.206;25.320;2023-03-23T11:49:15;99816.09;;;14.39;62.46
73501;BME280;61721;42.206;25.320;2023-03-23T11:51:48;99814.72;;;14.35;63.23
73501;BME280;61721;42.206;25.320;2023-03-23T11:54:21;99813.50;;;14.80;62.19
73501;BME280;61721;42.206;25.320;2023-03-23T11:56:54;99806.59;;;15.26;61.44
73501;BME280;61721;42.206;25.320;2023-03-23T11:59:27;99804.09;;;15.16;61.57
73501;BME280;61721;42.206;25.320;2023-03-23T12:04:56;99802.91;;;14.28;62.14
73501;BME280;61721;42.206;25.320;2023-03-23T12:07:36;99797.84;;;15.16;62.09
73501;BME280;61721;42.206;25.320;2023-03-23T12:10:22;99801.06;;;15.11;62.48
73501;BME280;61721;42.206;25.320;2023-03-23T12:13:03;99787.56;;;15.52;59.15
73501;BME280;61721;42.206;25.320;2023-03-23T12:15:38;99789.91;;;15.30;59.48
73501;BME280;61721;42.206;25.320;2023-03-23T12:18:15;99784.00;;;15.43;58.06
73501;BME280;61721;42.206;25.320;2023-03-23T12:20:55;99787.13;;;15.87;58.64
73501;BME280;61721;42.206;25.320;2023-03-23T12:23:30;99793.94;;;15.51;58.78
73501;BME280;61721;42.206;25.320;2023-03-23T12:26:13;99784.63;;;16.16;58.02
73501;BME280;61721;42.206;25.320;2023-03-23T12:29:20;99778.94;;;15.56;57.98
73501;BME280;61721;42.206;25.320;2023-03-23T12:32:01;99789.09;;;14.97;59.89
73501;BME280;61721;42.206;25.320;2023-03-23T12:34:40;99783.19;;;15.26;59.17
73501;BME280;61721;42.206;25.320;2023-03-23T12:37:32;99779.13;;;15.38;60.96
73501;BME280;61721;42.206;25.320;2023-03-23T12:40:22;99790.75;;;15.15;58.56
73501;BME280;61721;42.206;25.320;2023-03-23T12:42:56;99790.25;;;15.19;59.91
73501;BME280;61721;42.206;25.320;2023-03-23T12:45:53;99785.53;;;15.54;58.87
73501;BME280;61721;42.206;25.320;2023-03-23T12:48:24;99776.13;;;15.97;58.46
73501;BME280;61721;42.206;25.320;2023-03-23T12:51:11;99775.03;;;15.67;59.70
73501;BME280;61721;42.206;25.320;2023-03-23T12:53:46;99782.16;;;15.52;59.28
73501;BME280;61721;42.206;25.320;2023-03-23T12:56:17;99779.38;;;15.84;58.98
73501;BME280;61721;42.206;25.320;2023-03-23T12:58:52;99781.78;;;15.71;59.35
73501;BME280;61721;42.206;25.320;2023-03-23T13:01:25;99780.16;;;15.54;59.24
73501;BME280;61721;42.206;25.320;2023-03-23T13:03:57;99780.94;;;15.70;57.97
73501;BME280;61721;42.206;25.320;2023-03-23T13:06:29;99771.75;;;16.26;57.75
73501;BME280;61721;42.206;25.320;2023-03-23T13:09:01;99773.25;;;15.98;57.72
73501;BME280;61721;42.206;25.320;2023-03-23T13:11:32;99772.94;;;16.63;57.20
73501;BME280;61721;42.206;25.320;2023-03-23T13:21:14;99766.25;;;15.73;58.82
73501;BME280;61721;42.206;25.320;2023-03-23T13:23:46;99761.53;;;16.45;58.37
73501;BME280;61721;42.206;25.320;2023-03-23T13:26:19;99767.28;;;15.72;59.15